sensor_id;sensor_type;location;lat;lon;timestamp;pressure;altitude;pressure_sealevel;temperature;humidity
44441;BME280;30146;52.268;20.944;2023-07-20T00:00:38;99554.27;;;19.62;49.05
44441;BME280;30146;52.268;20.944;2023-07-20T00:03:14;99554.89;;;19.61;49.04
44441;BME280;30146;52.268;20.944;2023-07-20T00:05:49;99555.84;;;19.60;49.06
44441;BME280;30146;52.268;20.944;2023-07-20T00:08:20;99550.36;;;19.58;48.99
44441;BME280;30146;52.268;20.944;2023-07-20T00:10:51;99544.29;;;19.56;48.95
44441;BME280;30146;52.268;20.944;2023-07-20T00:13:22;99542.81;;;19.54;49.00
44441;BME280;30146;52.268;20.944;2023-07-20T00:15:53;99546.55;;;19.53;49.06
44441;BME280;30146;52.268;20.944;2023-07-20T00:18:25;99546.98;;;19.51;49.25
44441;BME280;30146;52.268;20.944;2023-07-20T00:20:56;99553.58;;;19.51;49.33
44441;BME280;30146;52.268;20.944;2023-07-20T00:23:29;99564.59;;;19.52;49.46
44441;BME280;30146;52.268;20.944;2023-07-20T00:26:03;99564.87;;;19.54;49.39
44441;BME280;30146;52.268;20.944;2023-07-20T00:28:34;99567.55;;;19.55;49.45
44441;BME280;30146;52.268;20.944;2023-07-20T00:31:06;99560.54;;;19.57;49.47
44441;BME280;30146;52.268;20.944;2023-07-20T00:33:39;99553.27;;;19.56;49.38
44441;BME280;30146;52.268;20.944;2023-07-20T00:36:10;99548.70;;;19.57;49.32
44441;BME280;30146;52.268;20.944;2023-07-20T00:38:41;99543.83;;;19.57;49.41
44441;BME280;30146;52.268;20.944;2023-07-20T00:41:12;99544.73;;;19.57;49.42
44441;BME280;30146;52.268;20.944;2023-07-20T00:43:44;99549.68;;;19.55;49.34
44441;BME280;30146;52.268;20.944;2023-07-20T00:46:15;99548.68;;;19.55;49.53
44441;BME280;30146;52.268;20.944;2023-07-20T00:48:47;99545.95;;;19.54;49.50
44441;BME280;30146;52.268;20.944;2023-07-20T00:51:18;99541.45;;;19.54;49.51
44441;BME280;30146;52.268;20.944;2023-07-20T00:53:49;99538.37;;;19.53;49.59
44441;BME280;30146;52.268;20.944;2023-07-20T00:56:20;99537.38;;;19.52;49.59
44441;BME280;30146;52.268;20.944;2023-07-20T00:58:53;99539.04;;;19.51;49.56
44441;BME280;30146;52.268;20.944;2023-07-20T01:01:25;99543.48;;;19.49;49.55
44441;BME280;30146;52.268;20.944;2023-07-20T01:03:56;99541.17;;;19.47;49.62
44441;BME280;30146;52.268;20.944;2023-07-20T01:06:36;99546.61;;;19.42;49.59
44441;BME280;30146;52.268;20.944;2023-07-20T01:09:16;99545.58;;;19.39;49.78
44441;BME280;30146;52.268;20.944;2023-07-20T01:11:57;99545.61;;;19.36;49.86
44441;BME280;30146;52.268;20.944;2023-07-20T01:14:31;99544.71;;;19.34;50.06
44441;BME280;30146;52.268;20.944;2023-07-20T01:17:03;99544.95;;;19.33;50.13
44441;BME280;30146;52.268;20.944;2023-07-20T01:19:34;99539.63;;;19.32;50.13
44441;BME280;30146;52.268;20.944;2023-07-20T01:22:13;99531.65;;;19.29;50.21
44441;BME280;30146;52.268;20.944;2023-07-20T01:25:11;99537.27;;;19.28;50.37
44441;BME280;30146;52.268;20.944;2023-07-20T01:31:10;99550.25;;;19.25;50.50
44441;BME280;30146;52.268;20.944;2023-07-20T01:33:43;99550.20;;;19.23;50.57
44441;BME280;30146;52.268;20.944;2023-07-20T01:36:16;99546.31;;;19.21;50.65
44441;BME280;30146;52.268;20.944;2023-07-20T01:38:48;99542.25;;;19.19;50.69
44441;BME280;30146;52.268;20.944;2023-07-20T01:41:20;99542.86;;;19.18;50.65
44441;BME280;30146;52.268;20.944;2023-07-20T01:43:51;99536.08;;;19.15;50.75
44441;BME280;30146;52.268;20.944;2023-07-20T01:46:22;99536.84;;;19.14;51.02
44441;BME280;30146;52.268;20.944;2023-07-20T01:48:54;99540.73;;;19.13;51.07
44441;BME280;30146;52.268;20.944;2023-07-20T01:51:25;99549.20;;;19.10;51.15
44441;BME280;30146;52.268;20.944;2023-07-20T01:53:56;99549.90;;;19.10;51.34
44441;BME280;30146;52.268;20.944;2023-07-20T01:56:27;99546.98;;;19.10;51.38
44441;BME280;30146;52.268;20.944;2023-07-20T01:58:58;99549.58;;;19.10;51.48
44441;BME280;30146;52.268;20.944;2023-07-20T02:01:30;99548.19;;;19.10;51.51
44441;BME280;30146;52.268;20.944;2023-07-20T02:04:01;99541.90;;;19.11;51.52
44441;BME280;30146;52.268;20.944;2023-07-20T02:06:33;99547.93;;;19.11;51.60
44441;BME280;30146;52.268;20.944;2023-07-20T02:09:04;99554.02;;;19.13;51.65
44441;BME280;30146;52.268;20.944;2023-07-20T02:11:35;99557.58;;;19.15;51.55
44441;BME280;30146;52.268;20.944;2023-07-20T02:14:06;99555.39;;;19.17;51.50
44441;BME280;30146;52.268;20.944;2023-07-20T02:16:37;99551.90;;;19.17;51.66
44441;BME280;30146;52.268;20.944;2023-07-20T02:19:08;99553.04;;;19.18;51.75
44441;BME280;30146;52.268;20.944;2023-07-20T02:21:40;99552.25;;;19.20;51.76
44441;BME280;30146;52.268;20.944;2023-07-20T02:24:11;99558.00;;;19.22;51.88
44441;BME280;30146;52.268;20.944;2023-07-20T02:26:43;99556.92;;;19.27;51.91
44441;BME280;30146;52.268;20.944;2023-07-20T02:29:14;99556.21;;;19.29;51.93
44441;BME280;30146;52.268;20.944;2023-07-20T02:31:45;99551.36;;;19.33;51.90
44441;BME280;30146;52.268;20.944;2023-07-20T02:34:16;99551.22;;;19.35;51.82
44441;BME280;30146;52.268;20.944;2023-07-20T02:36:48;99544.67;;;19.37;51.79
44441;BME280;30146;52.268;20.944;2023-07-20T02:39:19;99541.27;;;19.39;51.70
44441;BME280;30146;52.268;20.944;2023-07-20T02:41:51;99538.10;;;19.40;51.71
44441;BME280;30146;52.268;20.944;2023-07-20T02:44:22;99536.20;;;19.40;51.65
44441;BME280;30146;52.268;20.944;2023-07-20T02:46:53;99541.23;;;19.40;51.49
44441;BME280;30146;52.268;20.944;2023-07-20T02:49:25;99542.90;;;19.38;51.50
44441;BME280;30146;52.268;20.944;2023-07-20T02:51:56;99544.01;;;19.37;51.52
44441;BME280;30146;52.268;20.944;2023-07-20T02:54:28;99541.84;;;19.35;51.49
44441;BME280;30146;52.268;20.944;2023-07-20T02:56:59;99541.39;;;19.34;51.55
44441;BME280;30146;52.268;20.944;2023-07-20T02:59:31;99543.39;;;19.33;51.50
44441;BME280;30146;52.268;20.944;2023-07-20T03:02:02;99544.02;;;19.31;51.56
44441;BME280;30146;52.268;20.944;2023-07-20T03:04:34;99547.25;;;19.29;51.51
44441;BME280;30146;52.268;20.944;2023-07-20T03:07:07;99550.98;;;19.27;51.34
44441;BME280;30146;52.268;20.944;2023-07-20T03:09:38;99551.92;;;19.23;51.50
44441;BME280;30146;52.268;20.944;2023-07-20T03:12:12;99554.48;;;19.20;51.40
44441;BME280;30146;52.268;20.944;2023-07-20T03:14:43;99548.88;;;19.18;51.63
44441;BME280;30146;52.268;20.944;2023-07-20T03:17:14;99552.08;;;19.17;51.71
44441;BME280;30146;52.268;20.944;2023-07-20T03:19:47;99555.29;;;19.15;51.64
44441;BME280;30146;52.268;20.944;2023-07-20T03:22:18;99558.43;;;19.12;51.60
44441;BME280;30146;52.268;20.944;2023-07-20T03:24:51;99561.67;;;19.10;51.80
44441;BME280;30146;52.268;20.944;2023-07-20T03:27:22;99566.27;;;19.09;52.03
44441;BME280;30146;52.268;20.944;2023-07-20T03:29:53;99570.53;;;19.10;52.19
44441;BME280;30146;52.268;20.944;2023-07-20T03:32:24;99567.20;;;19.11;52.37
44441;BME280;30146;52.268;20.944;2023-07-20T03:34:56;99566.95;;;19.12;52.60
44441;BME280;30146;52.268;20.944;2023-07-20T03:37:27;99574.77;;;19.12;52.73
44441;BME280;30146;52.268;20.944;2023-07-20T03:39:58;99584.55;;;19.10;53.02
44441;BME280;30146;52.268;20.944;2023-07-20T03:42:29;99590.70;;;19.08;53.43
44441;BME280;30146;52.268;20.944;2023-07-20T03:45:01;99605.02;;;19.06;53.64
44441;BME280;30146;52.268;20.944;2023-07-20T03:47:32;99616.53;;;19.02;53.85
44441;BME280;30146;52.268;20.944;2023-07-20T03:50:04;99625.20;;;18.98;54.21
44441;BME280;30146;52.268;20.944;2023-07-20T03:52:35;99629.86;;;18.95;54.52
44441;BME280;30146;52.268;20.944;2023-07-20T03:55:08;99624.27;;;18.93;54.91
44441;BME280;30146;52.268;20.944;2023-07-20T03:57:39;99625.29;;;18.91;55.13
44441;BME280;30146;52.268;20.944;2023-07-20T04:00:13;99623.40;;;18.87;55.20
44441;BME280;30146;52.268;20.944;2023-07-20T04:02:46;99617.12;;;18.81;55.31
44441;BME280;30146;52.268;20.944;2023-07-20T04:05:17;99622.09;;;18.76;55.56
44441;BME280;30146;52.268;20.944;2023-07-20T04:07:48;99623.52;;;18.72;55.77
44441;BME280;30146;52.268;20.944;2023-07-20T04:10:21;99624.94;;;18.68;56.19
44441;BME280;30146;52.268;20.944;2023-07-20T04:12:54;99629.75;;;18.65;56.42
44441;BME280;30146;52.268;20.944;2023-07-20T04:15:25;99627.02;;;18.61;56.68
44441;BME280;30146;52.268;20.944;2023-07-20T04:17:56;99630.14;;;18.58;56.93
44441;BME280;30146;52.268;20.944;2023-07-20T04:20:30;99639.97;;;18.56;57.24
44441;BME280;30146;52.268;20.944;2023-07-20T04:23:01;99644.56;;;18.54;57.49
44441;BME280;30146;52.268;20.944;2023-07-20T04:25:33;99644.66;;;18.52;57.51
44441;BME280;30146;52.268;20.944;2023-07-20T04:28:10;99644.16;;;18.52;57.77
44441;BME280;30146;52.268;20.944;2023-07-20T04:30:48;99653.55;;;18.51;57.92
44441;BME280;30146;52.268;20.944;2023-07-20T04:33:19;99662.64;;;18.49;58.09
44441;BME280;30146;52.268;20.944;2023-07-20T04:35:52;99670.02;;;18.47;58.13
44441;BME280;30146;52.268;20.944;2023-07-20T04:38:27;99673.14;;;18.47;58.22
44441;BME280;30146;52.268;20.944;2023-07-20T04:41:09;99677.13;;;18.47;58.36
44441;BME280;30146;52.268;20.944;2023-07-20T04:43:44;99676.73;;;18.47;58.56
44441;BME280;30146;52.268;20.944;2023-07-20T04:46:18;99677.91;;;18.48;58.53
44441;BME280;30146;52.268;20.944;2023-07-20T04:48:52;99680.10;;;18.50;58.64
44441;BME280;30146;52.268;20.944;2023-07-20T04:51:24;99682.30;;;18.51;58.71
44441;BME280;30146;52.268;20.944;2023-07-20T04:53:57;99687.88;;;18.53;58.69
44441;BME280;30146;52.268;20.944;2023-07-20T04:56:33;99688.88;;;18.54;58.85
44441;BME280;30146;52.268;20.944;2023-07-20T04:59:06;99691.37;;;18.56;58.84
44441;BME280;30146;52.268;20.944;2023-07-20T05:01:37;99690.87;;;18.59;58.97
44441;BME280;30146;52.268;20.944;2023-07-20T05:04:08;99688.11;;;18.62;58.95
44441;BME280;30146;52.268;20.944;2023-07-20T05:06:39;99686.70;;;18.65;59.09
44441;BME280;30146;52.268;20.944;2023-07-20T05:09:11;99687.19;;;18.70;59.17
44441;BME280;30146;52.268;20.944;2023-07-20T05:11:42;99688.71;;;18.73;59.17
44441;BME280;30146;52.268;20.944;2023-07-20T05:14:15;99686.45;;;18.77;59.22
44441;BME280;30146;52.268;20.944;2023-07-20T05:16:47;99689.50;;;18.81;59.19
44441;BME280;30146;52.268;20.944;2023-07-20T05:19:18;99688.10;;;18.85;59.24
44441;BME280;30146;52.268;20.944;2023-07-20T05:21:49;99687.52;;;18.90;59.35
44441;BME280;30146;52.268;20.944;2023-07-20T05:24:20;99686.06;;;18.94;59.37
44441;BME280;30146;52.268;20.944;2023-07-20T05:26:51;99694.70;;;18.98;59.34
44441;BME280;30146;52.268;20.944;2023-07-20T05:29:22;99690.73;;;19.00;59.36
44441;BME280;30146;52.268;20.944;2023-07-20T05:31:53;99684.26;;;19.02;59.24
44441;BME280;30146;52.268;20.944;2023-07-20T05:34:24;99680.88;;;19.03;59.31
44441;BME280;30146;52.268;20.944;2023-07-20T05:36:56;99678.48;;;19.06;59.32
44441;BME280;30146;52.268;20.944;2023-07-20T05:39:27;99678.16;;;19.09;59.39
44441;BME280;30146;52.268;20.944;2023-07-20T05:41:58;99672.96;;;19.12;59.41
44441;BME280;30146;52.268;20.944;2023-07-20T05:44:29;99672.27;;;19.15;59.31
44441;BME280;30146;52.268;20.944;2023-07-20T05:47:01;99669.33;;;19.18;59.38
44441;BME280;30146;52.268;20.944;2023-07-20T05:49:33;99673.55;;;19.20;59.20
44441;BME280;30146;52.268;20.944;2023-07-20T05:52:05;99669.53;;;19.20;59.25
44441;BME280;30146;52.268;20.944;2023-07-20T05:54:36;99670.75;;;19.20;59.13
44441;BME280;30146;52.268;20.944;2023-07-20T05:57:09;99670.11;;;19.19;59.24
44441;BME280;30146;52.268;20.944;2023-07-20T05:59:40;99670.55;;;19.21;59.36
44441;BME280;30146;52.268;20.944;2023-07-20T06:02:13;99668.73;;;19.22;59.34
44441;BME280;30146;52.268;20.944;2023-07-20T06:04:44;99669.52;;;19.24;59.26
44441;BME280;30146;52.268;20.944;2023-07-20T06:07:15;99671.33;;;19.26;59.24
44441;BME280;30146;52.268;20.944;2023-07-20T06:09:47;99670.48;;;19.28;59.20
44441;BME280;30146;52.268;20.944;2023-07-20T06:12:18;99671.58;;;19.30;59.22
44441;BME280;30146;52.268;20.944;2023-07-20T06:14:49;99665.38;;;19.33;59.31
44441;BME280;30146;52.268;20.944;2023-07-20T06:17:20;99670.17;;;19.37;59.46
44441;BME280;30146;52.268;20.944;2023-07-20T06:19:52;99663.55;;;19.40;59.40
44441;BME280;30146;52.268;20.944;2023-07-20T06:22:23;99662.20;;;19.46;59.43
44441;BME280;30146;52.268;20.944;2023-07-20T06:24:54;99666.64;;;19.50;59.21
44441;BME280;30146;52.268;20.944;2023-07-20T06:27:25;99669.68;;;19.55;59.10
44441;BME280;30146;52.268;20.944;2023-07-20T06:29:59;99670.73;;;19.57;59.21
44441;BME280;30146;52.268;20.944;2023-07-20T06:32:30;99667.05;;;19.61;59.24
44441;BME280;30146;52.268;20.944;2023-07-20T06:35:01;99661.91;;;19.64;59.13
44441;BME280;30146;52.268;20.944;2023-07-20T06:37:32;99664.05;;;19.65;59.14
44441;BME280;30146;52.268;20.944;2023-07-20T06:40:05;99663.69;;;19.65;58.98
44441;BME280;30146;52.268;20.944;2023-07-20T06:42:41;99661.47;;;19.65;58.93
44441;BME280;30146;52.268;20.944;2023-07-20T06:45:15;99658.44;;;19.64;58.86
44441;BME280;30146;52.268;20.944;2023-07-20T06:47:47;99655.55;;;19.62;59.00
44441;BME280;30146;52.268;20.944;2023-07-20T06:50:18;99658.77;;;19.63;58.95
44441;BME280;30146;52.268;20.944;2023-07-20T06:52:50;99659.29;;;19.64;58.97
44441;BME280;30146;52.268;20.944;2023-07-20T06:55:21;99657.19;;;19.64;59.01
44441;BME280;30146;52.268;20.944;2023-07-20T06:57:52;99652.11;;;19.65;58.97
44441;BME280;30146;52.268;20.944;2023-07-20T07:00:28;99655.77;;;19.64;58.85
44441;BME280;30146;52.268;20.944;2023-07-20T07:02:59;99657.37;;;19.64;58.93
44441;BME280;30146;52.268;20.944;2023-07-20T07:05:31;99658.98;;;19.63;58.91
44441;BME280;30146;52.268;20.944;2023-07-20T07:08:06;99657.55;;;19.60;58.78
44441;BME280;30146;52.268;20.944;2023-07-20T07:10:37;99655.61;;;19.58;58.76
44441;BME280;30146;52.268;20.944;2023-07-20T07:13:09;99655.75;;;19.56;58.83
44441;BME280;30146;52.268;20.944;2023-07-20T07:15:40;99657.39;;;19.54;58.89
44441;BME280;30146;52.268;20.944;2023-07-20T07:18:13;99663.21;;;19.53;58.97
44441;BME280;30146;52.268;20.944;2023-07-20T07:20:51;99664.11;;;19.49;58.71
44441;BME280;30146;52.268;20.944;2023-07-20T07:23:23;99665.52;;;19.46;58.80
44441;BME280;30146;52.268;20.944;2023-07-20T07:25:54;99664.54;;;19.41;58.91
44441;BME280;30146;52.268;20.944;2023-07-20T07:28:25;99665.36;;;19.36;58.87
44441;BME280;30146;52.268;20.944;2023-07-20T07:30:57;99669.78;;;19.32;58.89
44441;BME280;30146;52.268;20.944;2023-07-20T07:33:28;99673.15;;;19.27;58.92
44441;BME280;30146;52.268;20.944;2023-07-20T07:35:59;99678.05;;;19.23;58.94
44441;BME280;30146;52.268;20.944;2023-07-20T07:38:31;99681.42;;;19.21;59.07
44441;BME280;30146;52.268;20.944;2023-07-20T07:41:22;99692.20;;;19.18;59.07
44441;BME280;30146;52.268;20.944;2023-07-20T07:43:53;99699.12;;;19.15;59.23
44441;BME280;30146;52.268;20.944;2023-07-20T07:46:24;99704.14;;;19.12;59.18
44441;BME280;30146;52.268;20.944;2023-07-20T07:48:56;99704.70;;;19.08;59.15
44441;BME280;30146;52.268;20.944;2023-07-20T07:51:27;99703.70;;;19.04;59.07
44441;BME280;30146;52.268;20.944;2023-07-20T07:53:58;99713.73;;;19.01;59.08
44441;BME280;30146;52.268;20.944;2023-07-20T07:56:29;99717.96;;;19.00;59.23
44441;BME280;30146;52.268;20.944;2023-07-20T07:59:00;99715.41;;;18.99;59.40
44441;BME280;30146;52.268;20.944;2023-07-20T08:01:32;99719.59;;;18.99;59.54
44441;BME280;30146;52.268;20.944;2023-07-20T08:04:05;99718.87;;;18.99;59.50
44441;BME280;30146;52.268;20.944;2023-07-20T08:06:36;99722.71;;;18.98;59.51
44441;BME280;30146;52.268;20.944;2023-07-20T08:09:07;99727.26;;;18.97;59.52
44441;BME280;30146;52.268;20.944;2023-07-20T08:11:40;99728.70;;;18.97;59.66
44441;BME280;30146;52.268;20.944;2023-07-20T08:14:11;99724.98;;;18.95;59.65
44441;BME280;30146;52.268;20.944;2023-07-20T08:16:45;99731.27;;;18.94;59.58
44441;BME280;30146;52.268;20.944;2023-07-20T08:19:17;99729.46;;;18.92;59.60
44441;BME280;30146;52.268;20.944;2023-07-20T08:21:49;99733.55;;;18.90;59.43
44441;BME280;30146;52.268;20.944;2023-07-20T08:24:20;99731.34;;;18.86;59.55
44441;BME280;30146;52.268;20.944;2023-07-20T08:26:51;99735.40;;;18.85;59.56
44441;BME280;30146;52.268;20.944;2023-07-20T08:29:22;99737.46;;;18.85;59.68
44441;BME280;30146;52.268;20.944;2023-07-20T08:31:54;99735.95;;;18.84;59.65
44441;BME280;30146;52.268;20.944;2023-07-20T08:34:25;99736.75;;;18.82;59.58
44441;BME280;30146;52.268;20.944;2023-07-20T08:37:01;99736.52;;;18.79;59.66
44441;BME280;30146;52.268;20.944;2023-07-20T08:39:32;99740.08;;;18.77;59.80
44441;BME280;30146;52.268;20.944;2023-07-20T08:42:06;99741.74;;;18.75;60.17
44441;BME280;30146;52.268;20.944;2023-07-20T08:44:37;99745.70;;;18.76;60.29
44441;BME280;30146;52.268;20.944;2023-07-20T08:47:10;99748.35;;;18.78;60.49
44441;BME280;30146;52.268;20.944;2023-07-20T08:49:42;99751.70;;;18.80;60.58
44441;BME280;30146;52.268;20.944;2023-07-20T08:52:13;99755.41;;;18.83;60.49
44441;BME280;30146;52.268;20.944;2023-07-20T08:54:44;99760.19;;;18.84;60.47
44441;BME280;30146;52.268;20.944;2023-07-20T08:57:16;99760.19;;;18.84;60.55
44441;BME280;30146;52.268;20.944;2023-07-20T08:59:49;99758.01;;;18.86;60.66
44441;BME280;30146;52.268;20.944;2023-07-20T09:02:23;99759.27;;;18.89;60.82
44441;BME280;30146;52.268;20.944;2023-07-20T09:04:54;99760.30;;;18.95;61.10
44441;BME280;30146;52.268;20.944;2023-07-20T09:07:26;99762.98;;;19.03;61.19
44441;BME280;30146;52.268;20.944;2023-07-20T09:09:59;99765.10;;;19.12;61.29
44441;BME280;30146;52.268;20.944;2023-07-20T09:12:37;99766.08;;;19.23;61.40
44441;BME280;30146;52.268;20.944;2023-07-20T09:15:11;99768.23;;;19.34;61.39
44441;BME280;30146;52.268;20.944;2023-07-20T09:17:47;99771.59;;;19.42;61.23
44441;BME280;30146;52.268;20.944;2023-07-20T09:20:19;99771.77;;;19.49;61.04
44441;BME280;30146;52.268;20.944;2023-07-20T09:22:53;99770.61;;;19.54;60.96
44441;BME280;30146;52.268;20.944;2023-07-20T09:25:24;99768.12;;;19.58;60.90
44441;BME280;30146;52.268;20.944;2023-07-20T09:28:04;99771.80;;;19.60;60.54
44441;BME280;30146;52.268;20.944;2023-07-20T09:30:35;99765.96;;;19.63;60.47
44441;BME280;30146;52.268;20.944;2023-07-20T09:33:19;99768.32;;;19.67;60.48
44441;BME280;30146;52.268;20.944;2023-07-20T09:35:55;99767.33;;;19.72;60.52
44441;BME280;30146;52.268;20.944;2023-07-20T09:38:52;99769.64;;;19.81;60.55
44441;BME280;30146;52.268;20.944;2023-07-20T09:41:26;99770.85;;;19.90;60.96
44441;BME280;30146;52.268;20.944;2023-07-20T09:44:02;99769.77;;;20.00;60.73
44441;BME280;30146;52.268;20.944;2023-07-20T09:46:54;99771.66;;;20.09;60.50
44441;BME280;30146;52.268;20.944;2023-07-20T09:49:28;99769.49;;;20.20;60.41
44441;BME280;30146;52.268;20.944;2023-07-20T09:52:20;99769.68;;;20.32;60.34
44441;BME280;30146;52.268;20.944;2023-07-20T09:54:55;99771.79;;;20.43;60.11
44441;BME280;30146;52.268;20.944;2023-07-20T09:57:27;99771.64;;;20.51;59.82
44441;BME280;30146;52.268;20.944;2023-07-20T09:59:59;99775.78;;;20.57;59.66
44441;BME280;30146;52.268;20.944;2023-07-20T10:02:33;99776.05;;;20.62;59.38
44441;BME280;30146;52.268;20.944;2023-07-20T10:05:05;99775.95;;;20.66;59.31
44441;BME280;30146;52.268;20.944;2023-07-20T10:07:44;99774.82;;;20.71;59.14
44441;BME280;30146;52.268;20.944;2023-07-20T10:10:18;99774.76;;;20.72;58.92
44441;BME280;30146;52.268;20.944;2023-07-20T10:12:50;99771.49;;;20.74;59.05
44441;BME280;30146;52.268;20.944;2023-07-20T10:15:26;99771.36;;;20.79;58.88
44441;BME280;30146;52.268;20.944;2023-07-20T10:18:06;99770.67;;;20.82;58.69
44441;BME280;30146;52.268;20.944;2023-07-20T10:20:41;99769.06;;;20.83;58.60
44441;BME280;30146;52.268;20.944;2023-07-20T10:23:16;99768.11;;;20.84;58.40
44441;BME280;30146;52.268;20.944;2023-07-20T10:25:48;99769.49;;;20.84;58.33
44441;BME280;30146;52.268;20.944;2023-07-20T10:28:19;99770.48;;;20.82;58.05
44441;BME280;30146;52.268;20.944;2023-07-20T10:30:52;99766.10;;;20.80;58.07
44441;BME280;30146;52.268;20.944;2023-07-20T10:33:25;99768.46;;;20.81;58.33
44441;BME280;30146;52.268;20.944;2023-07-20T10:36:02;99769.69;;;20.84;58.53
44441;BME280;30146;52.268;20.944;2023-07-20T10:38:42;99768.65;;;20.90;58.39
44441;BME280;30146;52.268;20.944;2023-07-20T10:41:27;99769.90;;;20.94;58.26
44441;BME280;30146;52.268;20.944;2023-07-20T10:44:03;99772.56;;;21.05;58.68
44441;BME280;30146;52.268;20.944;2023-07-20T10:46:44;99767.19;;;21.22;58.84
44441;BME280;30146;52.268;20.944;2023-07-20T10:49:16;99760.41;;;21.47;58.86
44441;BME280;30146;52.268;20.944;2023-07-20T10:51:57;99763.23;;;21.73;58.74
44441;BME280;30146;52.268;20.944;2023-07-20T10:54:55;99760.09;;;22.00;58.39
44441;BME280;30146;52.268;20.944;2023-07-20T10:57:31;99756.84;;;22.25;57.90
44441;BME280;30146;52.268;20.944;2023-07-20T11:00:13;99753.89;;;22.36;56.99
44441;BME280;30146;52.268;20.944;2023-07-20T11:02:46;99747.63;;;22.51;56.69
44441;BME280;30146;52.268;20.944;2023-07-20T11:05:40;99745.12;;;22.75;56.86
44441;BME280;30146;52.268;20.944;2023-07-20T11:08:14;99753.27;;;22.98;56.32
44441;BME280;30146;52.268;20.944;2023-07-20T11:11:24;99755.02;;;23.20;55.98
44441;BME280;30146;52.268;20.944;2023-07-20T11:14:03;99757.80;;;23.32;55.10
44441;BME280;30146;52.268;20.944;2023-07-20T11:16:37;99756.05;;;23.40;54.90
44441;BME280;30146;52.268;20.944;2023-07-20T11:19:15;99751.98;;;23.46;54.62
44441;BME280;30146;52.268;20.944;2023-07-20T11:21:52;99744.99;;;23.51;54.08
44441;BME280;30146;52.268;20.944;2023-07-20T11:24:32;99747.09;;;23.53;54.02
44441;BME280;30146;52.268;20.944;2023-07-20T11:27:05;99754.79;;;23.53;53.70
44441;BME280;30146;52.268;20.944;2023-07-20T11:29:37;99756.85;;;23.46;53.37
44441;BME280;30146;52.268;20.944;2023-07-20T11:32:09;99751.77;;;23.36;53.36
44441;BME280;30146;52.268;20.944;2023-07-20T11:34:41;99749.80;;;23.35;53.35
44441;BME280;30146;52.268;20.944;2023-07-20T11:37:18;99748.21;;;23.33;53.16
44441;BME280;30146;52.268;20.944;2023-07-20T11:39:49;99745.03;;;23.31;53.12
44441;BME280;30146;52.268;20.944;2023-07-20T11:42:23;99738.92;;;23.31;53.27
44441;BME280;30146;52.268;20.944;2023-07-20T11:44:58;99734.18;;;23.36;53.05
44441;BME280;30146;52.268;20.944;2023-07-20T11:47:31;99735.88;;;23.44;53.08
44441;BME280;30146;52.268;20.944;2023-07-20T11:50:06;99730.77;;;23.50;52.80
44441;BME280;30146;52.268;20.944;2023-07-20T11:52:38;99728.08;;;23.55;52.44
44441;BME280;30146;52.268;20.944;2023-07-20T11:55:10;99732.69;;;23.61;52.71
44441;BME280;30146;52.268;20.944;2023-07-20T11:57:42;99729.81;;;23.72;52.89
44441;BME280;30146;52.268;20.944;2023-07-20T12:00:32;99730.27;;;23.80;52.19
44441;BME280;30146;52.268;20.944;2023-07-20T12:03:06;99727.65;;;23.83;51.95
44441;BME280;30146;52.268;20.944;2023-07-20T12:05:39;99730.15;;;23.84;51.89
44441;BME280;30146;52.268;20.944;2023-07-20T12:08:13;99731.52;;;23.82;51.54
44441;BME280;30146;52.268;20.944;2023-07-20T12:10:44;99729.95;;;23.80;51.40
44441;BME280;30146;52.268;20.944;2023-07-20T12:13:16;99733.09;;;23.77;51.19
44441;BME280;30146;52.268;20.944;2023-07-20T12:15:49;99729.14;;;23.76;51.18
44441;BME280;30146;52.268;20.944;2023-07-20T12:18:36;99733.25;;;23.80;51.59
44441;BME280;30146;52.268;20.944;2023-07-20T12:21:07;99738.38;;;23.89;51.39
44441;BME280;30146;52.268;20.944;2023-07-20T12:23:41;99733.09;;;24.01;51.46
44441;BME280;30146;52.268;20.944;2023-07-20T12:26:15;99728.20;;;24.15;51.16
44441;BME280;30146;52.268;20.944;2023-07-20T12:28:46;99729.39;;;24.25;50.95
44441;BME280;30146;52.268;20.944;2023-07-20T12:31:20;99727.86;;;24.33;50.85
44441;BME280;30146;52.268;20.944;2023-07-20T12:33:53;99726.88;;;24.42;50.73
44441;BME280;30146;52.268;20.944;2023-07-20T12:36:25;99730.30;;;24.45;50.35
44441;BME280;30146;52.268;20.944;2023-07-20T12:38:57;99731.58;;;24.44;50.06
44441;BME280;30146;52.268;20.944;2023-07-20T12:41:29;99723.26;;;24.44;49.84
44441;BME280;30146;52.268;20.944;2023-07-20T12:44:00;99721.50;;;24.44;49.82
44441;BME280;30146;52.268;20.944;2023-07-20T12:46:31;99720.41;;;24.41;50.12
44441;BME280;30146;52.268;20.944;2023-07-20T12:49:05;99712.16;;;24.37;49.81
44441;BME280;30146;52.268;20.944;2023-07-20T12:51:36;99704.40;;;24.32;49.81
44441;BME280;30146;52.268;20.944;2023-07-20T12:54:07;99707.38;;;24.27;50.17
44441;BME280;30146;52.268;20.944;2023-07-20T12:56:38;99703.11;;;24.21;50.06
44441;BME280;30146;52.268;20.944;2023-07-20T12:59:13;99698.34;;;24.15;49.80
44441;BME280;30146;52.268;20.944;2023-07-20T13:01:44;99694.52;;;24.08;49.86
44441;BME280;30146;52.268;20.944;2023-07-20T13:04:15;99685.98;;;24.00;49.95
44441;BME280;30146;52.268;20.944;2023-07-20T13:06:46;99684.35;;;23.97;50.03
44441;BME280;30146;52.268;20.944;2023-07-20T13:09:18;99674.03;;;23.93;50.03
44441;BME280;30146;52.268;20.944;2023-07-20T13:11:49;99670.55;;;23.90;50.30
44441;BME280;30146;52.268;20.944;2023-07-20T13:14:21;99669.64;;;23.91;50.58
44441;BME280;30146;52.268;20.944;2023-07-20T13:16:52;99670.71;;;23.93;50.72
44441;BME280;30146;52.268;20.944;2023-07-20T13:19:23;99666.09;;;23.94;50.65
44441;BME280;30146;52.268;20.944;2023-07-20T13:21:57;99665.98;;;23.93;50.44
44441;BME280;30146;52.268;20.944;2023-07-20T13:24:28;99664.73;;;23.91;50.25